Stavelot, Belgium
Current Conditions -  °F | °C
As of 3:51 AM on Thursday 23 Oct 2014 (Local Time) from EBLB Reporting Station
Broken Clouds Broken Clouds  
Wind Chill: 39°   Ceiling: 1500
Heat Index: 43°   Visibility: 3mi
Dew Point: 41°   Wind: 6mph
Humidity: 93%   Direction: 270°W
Pressure: 30.21"   Gusts: NA
Location:  50.4°N, 5.93°E
Report Text: EBLB 230151Z AUTO 27005KT 5000 FEW005/// SCT007/// BKN015/// 06/05 Q1023 GRN
Loading
Personal Weather Stations






























Interactive Weather Map
Tropical Storm Tracking
New forecast layout! Learn more

10-Day Weather Forecast

Advertisements
Track Severe Weather on mobile